createdAt,value
2019-06-01T00:02:09.742Z,55.48
2019-06-01T00:04:40.975Z,55.63
2019-06-01T00:07:12.232Z,55.70
2019-06-01T00:09:43.225Z,55.91
2019-06-01T00:12:14.326Z,55.80
2019-06-01T00:14:48.141Z,55.67
2019-06-01T00:17:19.512Z,55.79
2019-06-01T00:19:50.487Z,55.92
2019-06-01T00:22:21.714Z,55.98
2019-06-01T00:24:52.834Z,55.97
2019-06-01T00:27:23.808Z,56.11
2019-06-01T00:29:54.724Z,56.28
2019-06-01T00:32:25.798Z,56.44
2019-06-01T00:34:57.050Z,56.63
2019-06-01T00:37:27.947Z,56.83
2019-06-01T00:39:59.207Z,56.90
2019-06-01T00:42:30.330Z,56.96
2019-06-01T00:45:01.602Z,57.03
2019-06-01T00:47:32.580Z,57.10
2019-06-01T00:50:04.350Z,57.28
2019-06-01T00:52:35.480Z,57.63
2019-06-01T00:55:07.705Z,57.71
2019-06-01T00:57:38.840Z,57.80
2019-06-01T01:00:10.479Z,58.02
2019-06-01T01:02:41.746Z,58.13
2019-06-01T01:05:18.897Z,58.22
2019-06-01T01:07:51.277Z,58.36
2019-06-01T01:10:23.490Z,58.36
2019-06-01T01:13:05.112Z,58.50
2019-06-01T01:15:37.439Z,58.68
2019-06-01T01:18:10.468Z,58.74
2019-06-01T01:20:41.673Z,58.90
2019-06-01T01:23:12.737Z,59.19
2019-06-01T01:25:43.936Z,59.52
2019-06-01T01:28:16.390Z,59.64
2019-06-01T01:31:02.736Z,59.58
2019-06-01T01:33:20.133Z,59.58
2019-06-01T01:35:52.610Z,59.74
2019-06-01T01:38:24.381Z,60.04
2019-06-01T01:40:56.244Z,59.92
2019-06-01T01:43:27.925Z,59.85
2019-06-01T01:45:59.121Z,59.88
2019-06-01T01:48:30.199Z,59.85
2019-06-01T01:51:01.094Z,60.00
2019-06-01T01:53:32.227Z,60.44
2019-06-01T01:56:03.212Z,60.48
2019-06-01T01:58:34.206Z,60.87
2019-06-01T02:01:21.360Z,60.85
2019-06-01T02:03:38.076Z,60.90
2019-06-01T02:06:09.031Z,60.98
2019-06-01T02:08:39.972Z,60.88
2019-06-01T02:11:11.259Z,61.37
2019-06-01T02:13:42.213Z,61.21
2019-06-01T02:16:13.305Z,61.58
2019-06-01T02:18:44.526Z,61.46
2019-06-01T02:21:15.625Z,61.92
2019-06-01T02:23:46.815Z,61.80
2019-06-01T02:26:17.856Z,62.46
2019-06-01T02:28:49.205Z,62.67
2019-06-01T02:31:37.358Z,63.23
2019-06-01T02:33:53.735Z,63.32
2019-06-01T02:36:25.048Z,63.56
2019-06-01T02:38:56.556Z,63.33
2019-06-01T02:41:28.070Z,63.48
2019-06-01T02:44:01.399Z,63.26
2019-06-01T02:46:35.565Z,64.04
2019-06-01T02:49:06.260Z,64.32
2019-06-01T02:51:37.474Z,64.06
2019-06-01T02:54:08.753Z,64.07
2019-06-01T02:56:39.863Z,64.56
2019-06-01T02:59:11.216Z,64.95
2019-06-01T03:01:56.635Z,64.77
2019-06-01T03:04:17.939Z,64.59
2019-06-01T03:06:53.132Z,63.89
2019-06-01T03:09:27.817Z,63.64
2019-06-01T03:12:04.254Z,63.37
2019-06-01T03:14:37.563Z,63.25
2019-06-01T03:17:12.890Z,63.14
2019-06-01T03:19:48.977Z,63.00
2019-06-01T03:22:23.630Z,62.91
2019-06-01T03:24:58.201Z,62.79
2019-06-01T03:27:33.847Z,62.55
2019-06-01T03:30:12.005Z,62.39
2019-06-01T03:32:41.916Z,62.26
2019-06-01T03:35:13.324Z,62.03
2019-06-01T03:37:44.609Z,61.91
2019-06-01T03:40:23.844Z,61.80
2019-06-01T03:42:48.749Z,61.57
2019-06-01T03:45:19.861Z,61.52
2019-06-01T03:47:50.797Z,61.41
2019-06-01T03:50:21.863Z,61.59
2019-06-01T03:52:52.807Z,61.39
2019-06-01T03:55:23.643Z,61.42
2019-06-01T03:57:54.806Z,61.43
2019-06-01T04:00:25.767Z,61.46
2019-06-01T04:02:56.855Z,61.55
2019-06-01T04:05:28.133Z,61.33
2019-06-01T04:07:59.173Z,61.14
2019-06-01T04:10:31.663Z,61.19
2019-06-01T04:13:03.508Z,61.01
2019-06-01T04:15:35.094Z,60.87
2019-06-01T04:18:06.240Z,60.76
2019-06-01T04:20:37.575Z,60.56
2019-06-01T04:23:08.663Z,60.37
2019-06-01T04:25:39.712Z,60.46
2019-06-01T04:28:12.726Z,60.39
2019-06-01T04:30:43.965Z,60.25
2019-06-01T04:33:15.191Z,60.30
2019-06-01T04:35:47.736Z,60.14
2019-06-01T04:38:18.870Z,59.89
2019-06-01T04:40:50.117Z,59.65
2019-06-01T04:43:21.385Z,59.59
2019-06-01T04:45:52.415Z,59.66
2019-06-01T04:48:23.678Z,59.49
2019-06-01T04:50:54.771Z,59.39
2019-06-01T04:53:25.967Z,59.16
2019-06-01T04:55:57.162Z,59.58
2019-06-01T04:58:28.339Z,60.16
2019-06-01T05:00:59.337Z,60.10
2019-06-01T05:03:30.347Z,60.03
2019-06-01T05:06:01.880Z,60.23
2019-06-01T05:08:32.784Z,60.15
2019-06-01T05:11:05.771Z,60.02
2019-06-01T05:13:36.965Z,60.13
2019-06-01T05:16:08.473Z,59.98
2019-06-01T05:18:39.944Z,59.80
2019-06-01T05:21:10.992Z,59.62
2019-06-01T05:23:43.724Z,59.46
2019-06-01T05:26:15.075Z,59.28
2019-06-01T05:28:46.060Z,59.18
2019-06-01T05:31:24.711Z,59.09
2019-06-01T05:33:50.073Z,58.94
2019-06-01T05:36:21.147Z,58.75
2019-06-01T05:38:52.166Z,58.54
2019-06-01T05:41:23.062Z,58.44
2019-06-01T05:43:54.187Z,58.37
2019-06-01T05:46:25.208Z,58.69
2019-06-01T05:48:56.228Z,58.51
2019-06-01T05:51:27.362Z,58.64
2019-06-01T05:53:58.349Z,58.48
2019-06-01T05:56:29.262Z,58.31
2019-06-01T05:59:00.340Z,58.29
2019-06-01T06:01:31.560Z,58.16
2019-06-01T06:04:02.802Z,58.11
2019-06-01T06:06:33.862Z,57.81
2019-06-01T06:09:08.108Z,57.77
2019-06-01T06:11:39.233Z,57.85
2019-06-01T06:14:11.492Z,57.42
2019-06-01T06:16:42.920Z,57.35
2019-06-01T06:19:16.925Z,57.37
2019-06-01T06:21:46.658Z,57.29
2019-06-01T06:24:18.559Z,56.99
2019-06-01T06:26:49.782Z,56.69
2019-06-01T06:29:20.991Z,56.51
2019-06-01T06:31:52.701Z,56.00
2019-06-01T06:34:23.856Z,55.98
2019-06-01T06:36:54.853Z,55.83
2019-06-01T06:39:25.708Z,55.58
2019-06-01T06:41:57.024Z,55.33
2019-06-01T06:44:28.383Z,54.97
2019-06-01T06:46:59.803Z,54.78
2019-06-01T06:49:30.971Z,54.20
2019-06-01T06:52:02.206Z,53.93
2019-06-01T06:54:34.884Z,53.71
2019-06-01T06:57:07.566Z,53.31
2019-06-01T06:59:38.706Z,52.75
2019-06-01T07:02:09.945Z,51.96
2019-06-01T07:04:41.086Z,51.62
2019-06-01T07:07:12.432Z,51.10
2019-06-01T07:09:43.863Z,50.62
2019-06-01T07:12:15.018Z,50.29
2019-06-01T07:14:46.294Z,49.54
2019-06-01T07:17:17.557Z,48.84
2019-06-01T07:19:48.603Z,48.25
2019-06-01T07:22:19.817Z,48.19
2019-06-01T07:24:51.447Z,47.88
2019-06-01T07:27:24.044Z,47.29
2019-06-01T07:29:55.157Z,46.38
2019-06-01T07:32:26.728Z,45.37
2019-06-01T07:35:00.944Z,45.39
2019-06-01T07:37:32.640Z,44.98
2019-06-01T07:40:04.905Z,44.59
2019-06-01T07:42:36.981Z,44.12
2019-06-01T07:45:09.000Z,44.10
2019-06-01T07:47:39.945Z,43.38
2019-06-01T07:50:11.823Z,43.03
2019-06-01T07:52:43.251Z,42.77
2019-06-01T07:55:14.577Z,42.38
2019-06-01T07:57:46.000Z,41.98
2019-06-01T08:00:18.699Z,41.55
2019-06-01T08:02:49.955Z,41.20
2019-06-01T08:05:23.297Z,41.10
2019-06-01T08:07:54.644Z,40.93
2019-06-01T08:10:26.487Z,40.52
2019-06-01T08:12:58.795Z,40.31
2019-06-01T08:15:30.097Z,39.91
2019-06-01T08:18:01.359Z,39.55
2019-06-01T08:20:32.371Z,39.18
2019-06-01T08:23:03.523Z,38.63
2019-06-01T08:25:35.000Z,39.19
2019-06-01T08:28:06.473Z,39.14
2019-06-01T08:30:37.845Z,38.34
2019-06-01T08:33:09.078Z,37.30
2019-06-01T08:35:40.211Z,37.37
2019-06-01T08:38:11.407Z,37.18
2019-06-01T08:40:42.592Z,37.25
2019-06-01T08:43:13.809Z,37.03
2019-06-01T08:45:45.021Z,36.68
2019-06-01T08:48:16.059Z,36.04
2019-06-01T08:50:47.219Z,36.29
2019-06-01T08:53:18.294Z,36.12
2019-06-01T08:55:49.454Z,36.51
2019-06-01T08:58:20.548Z,37.36
2019-06-01T09:00:51.791Z,37.91
2019-06-01T09:03:22.881Z,38.09
2019-06-01T09:05:54.233Z,38.25
2019-06-01T09:08:26.039Z,38.49
2019-06-01T09:10:58.317Z,38.41
2019-06-01T09:13:29.637Z,37.33
2019-06-01T09:16:00.851Z,35.95
2019-06-01T09:18:31.942Z,35.99
2019-06-01T09:21:03.043Z,36.30
2019-06-01T09:23:34.285Z,36.92
2019-06-01T09:26:05.525Z,37.45
2019-06-01T09:28:36.581Z,37.50
2019-06-01T09:31:07.899Z,37.79
2019-06-01T09:33:39.149Z,37.83
2019-06-01T09:36:10.362Z,37.29
2019-06-01T09:38:41.380Z,36.79
2019-06-01T09:41:12.639Z,37.27
2019-06-01T09:43:43.675Z,38.21
2019-06-01T09:46:14.894Z,38.89
2019-06-01T09:48:45.983Z,39.70
2019-06-01T09:51:17.162Z,40.35
2019-06-01T09:53:48.503Z,40.74
2019-06-01T09:56:19.648Z,40.86
2019-06-01T09:58:50.795Z,40.75
2019-06-01T10:01:21.858Z,39.95
2019-06-01T10:03:53.202Z,38.13
2019-06-01T10:06:24.457Z,36.71
2019-06-01T10:08:55.607Z,35.78
2019-06-01T10:11:28.081Z,35.43
2019-06-01T10:13:59.133Z,35.47
2019-06-01T10:16:30.474Z,35.99
2019-06-01T10:19:01.857Z,36.13
2019-06-01T10:21:33.952Z,36.01
2019-06-01T10:24:05.448Z,36.08
2019-06-01T10:26:37.618Z,35.29
2019-06-01T10:29:08.902Z,34.25
2019-06-01T10:31:41.519Z,32.52
2019-06-01T10:34:13.757Z,32.44
2019-06-01T10:36:45.292Z,33.17
2019-06-01T10:39:19.498Z,33.83
2019-06-01T10:41:49.593Z,34.54
2019-06-01T10:44:20.880Z,35.17
2019-06-01T10:46:52.218Z,35.31
2019-06-01T10:49:24.009Z,35.25
2019-06-01T10:51:55.194Z,34.95
2019-06-01T10:54:26.626Z,34.44
2019-06-01T10:56:57.677Z,33.87
2019-06-01T10:59:29.140Z,33.66
2019-06-01T11:02:00.275Z,33.15
2019-06-01T11:04:33.088Z,33.30
2019-06-01T11:07:04.748Z,32.17
2019-06-01T11:09:36.926Z,31.46
2019-06-01T11:12:08.175Z,29.83
2019-06-01T11:14:39.407Z,29.50
2019-06-01T11:17:10.988Z,30.05
2019-06-01T11:19:43.606Z,28.91
2019-06-01T11:22:14.998Z,28.71
2019-06-01T11:24:46.272Z,29.06
2019-06-01T11:27:17.419Z,28.56
2019-06-01T11:29:51.583Z,28.38
2019-06-01T11:32:21.333Z,28.48
2019-06-01T11:34:52.587Z,29.18
2019-06-01T11:37:23.544Z,29.62
2019-06-01T11:39:55.126Z,29.88
2019-06-01T11:42:26.526Z,30.38
2019-06-01T11:44:57.638Z,30.77
2019-06-01T11:47:29.040Z,31.16
2019-06-01T11:50:00.094Z,31.65
2019-06-01T11:52:31.203Z,32.17
2019-06-01T11:55:02.340Z,32.67
2019-06-01T11:57:33.312Z,33.44
2019-06-01T12:00:13.189Z,34.38
2019-06-01T12:02:45.955Z,35.37
2019-06-01T12:05:17.462Z,35.82
2019-06-01T12:07:48.442Z,36.48
2019-06-01T12:10:20.186Z,36.81
2019-06-01T12:12:51.104Z,37.24
2019-06-01T12:15:25.914Z,36.87
2019-06-01T12:17:55.249Z,36.44
2019-06-01T12:20:28.227Z,36.84
2019-06-01T12:22:59.568Z,37.54
2019-06-01T12:25:30.553Z,38.19
2019-06-01T12:28:01.512Z,38.68
2019-06-01T12:30:32.716Z,39.86
2019-06-01T12:33:04.945Z,40.27
2019-06-01T12:35:37.906Z,40.84
2019-06-01T12:38:09.150Z,41.12
2019-06-01T12:40:41.113Z,41.62
2019-06-01T12:43:12.242Z,41.76
2019-06-01T12:45:43.719Z,42.05
2019-06-01T12:48:15.102Z,42.05
2019-06-01T12:50:49.312Z,42.22
2019-06-01T12:53:19.096Z,42.46
2019-06-01T12:55:50.449Z,42.27
2019-06-01T12:58:21.796Z,42.16
2019-06-01T13:00:53.023Z,42.08
2019-06-01T13:03:23.959Z,42.07
2019-06-01T13:05:55.153Z,41.88
2019-06-01T13:08:26.334Z,41.76
2019-06-01T13:10:57.610Z,41.65
2019-06-01T13:13:28.802Z,41.47
2019-06-01T13:16:00.455Z,41.27
2019-06-01T13:18:31.663Z,41.20
2019-06-01T13:21:03.094Z,40.77
2019-06-01T13:23:34.191Z,40.69
2019-06-01T13:26:05.409Z,40.52
2019-06-01T13:28:38.361Z,40.44
2019-06-01T13:31:09.390Z,40.20
2019-06-01T13:33:40.689Z,39.82
2019-06-01T13:36:11.673Z,39.69
2019-06-01T13:38:42.791Z,39.59
2019-06-01T13:41:13.821Z,39.40
2019-06-01T13:43:45.259Z,39.03
2019-06-01T13:46:16.417Z,38.69
2019-06-01T13:48:47.670Z,38.07
2019-06-01T13:51:19.428Z,37.36
2019-06-01T13:53:50.569Z,36.80
2019-06-01T13:56:21.587Z,36.26
2019-06-01T13:58:52.781Z,35.77
2019-06-01T14:01:23.867Z,35.62
2019-06-01T14:03:55.741Z,35.40
2019-06-01T14:06:26.993Z,35.04
2019-06-01T14:08:58.417Z,34.95
2019-06-01T14:11:29.453Z,34.55
2019-06-01T14:14:00.598Z,34.48
2019-06-01T14:16:32.031Z,34.74
2019-06-01T14:19:06.742Z,34.83
2019-06-01T14:21:36.045Z,34.87
2019-06-01T14:24:07.427Z,34.20
2019-06-01T14:26:38.539Z,34.01
2019-06-01T14:29:09.745Z,34.22
2019-06-01T14:31:41.031Z,34.20
2019-06-01T14:34:12.045Z,34.48
2019-06-01T14:36:43.267Z,34.80
2019-06-01T14:39:14.469Z,34.97
2019-06-01T14:41:46.717Z,35.08
2019-06-01T14:44:17.777Z,35.19
2019-06-01T14:46:55.145Z,35.40
2019-06-01T14:49:21.905Z,35.49
2019-06-01T14:51:53.684Z,35.57
2019-06-01T14:54:24.934Z,35.84
2019-06-01T14:56:56.317Z,36.05
2019-06-01T14:59:27.426Z,36.12
2019-06-01T15:01:58.763Z,36.46
2019-06-01T15:04:29.995Z,36.58
2019-06-01T15:07:01.028Z,36.60
2019-06-01T15:09:32.337Z,36.36
2019-06-01T15:12:03.520Z,36.62
2019-06-01T15:14:34.790Z,37.00
2019-06-01T15:17:06.582Z,37.75
2019-06-01T15:19:37.783Z,37.71
2019-06-01T15:22:09.214Z,37.68
2019-06-01T15:24:40.253Z,37.74
2019-06-01T15:27:11.863Z,37.84
2019-06-01T15:29:42.957Z,37.92
2019-06-01T15:32:14.091Z,38.03
2019-06-01T15:34:45.152Z,38.13
2019-06-01T15:37:16.238Z,38.35
2019-06-01T15:39:47.490Z,38.23
2019-06-01T15:42:18.730Z,38.38
2019-06-01T15:44:50.946Z,38.64
2019-06-01T15:47:22.137Z,38.71
2019-06-01T15:49:53.584Z,38.77
2019-06-01T15:52:24.684Z,38.80
2019-06-01T15:54:56.160Z,39.03
2019-06-01T15:57:27.514Z,39.02
2019-06-01T15:59:58.669Z,38.98
2019-06-01T16:02:29.772Z,39.09
2019-06-01T16:05:01.455Z,38.93
2019-06-01T16:07:32.905Z,38.77
2019-06-01T16:10:08.206Z,39.16
2019-06-01T16:12:39.266Z,39.17
2019-06-01T16:15:12.419Z,39.41
2019-06-01T16:17:43.374Z,39.83
2019-06-01T16:20:15.094Z,39.77
2019-06-01T16:22:46.193Z,39.70
2019-06-01T16:25:17.334Z,39.75
2019-06-01T16:27:48.678Z,39.67
2019-06-01T16:30:20.165Z,39.66
2019-06-01T16:32:51.580Z,39.60
2019-06-01T16:35:22.744Z,39.78
2019-06-01T16:37:54.964Z,39.91
2019-06-01T16:40:26.222Z,40.19
2019-06-01T16:42:57.452Z,40.23
2019-06-01T16:45:28.712Z,40.53
2019-06-01T16:47:59.934Z,40.89
2019-06-01T16:50:31.432Z,41.28
2019-06-01T16:53:02.454Z,41.17
2019-06-01T16:55:33.669Z,41.40
2019-06-01T16:58:06.591Z,41.72
2019-06-01T17:00:38.068Z,42.08
2019-06-01T17:03:11.311Z,42.25
2019-06-01T17:05:42.140Z,42.58
2019-06-01T17:08:13.270Z,42.71
2019-06-01T17:10:44.502Z,43.15
2019-06-01T17:13:15.939Z,43.42
2019-06-01T17:15:52.425Z,44.05
2019-06-01T17:18:23.467Z,44.18
2019-06-01T17:20:56.893Z,44.60
2019-06-01T17:23:32.087Z,44.83
2019-06-01T17:26:03.969Z,44.96
2019-06-01T17:28:36.121Z,45.32
2019-06-01T17:31:08.345Z,45.29
2019-06-01T17:33:39.653Z,45.54
2019-06-01T17:36:11.170Z,45.92
2019-06-01T17:38:42.388Z,45.98
2019-06-01T17:41:13.840Z,46.12
2019-06-01T17:43:45.217Z,46.27
2019-06-01T17:46:16.787Z,46.33
2019-06-01T17:48:47.894Z,46.36
2019-06-01T17:51:19.437Z,46.57
2019-06-01T17:53:53.277Z,46.62
2019-06-01T17:56:23.472Z,46.81
2019-06-01T17:58:54.716Z,47.05
2019-06-01T18:01:28.465Z,47.33
2019-06-01T18:03:59.967Z,47.73
2019-06-01T18:06:31.358Z,48.17
2019-06-01T18:09:03.832Z,48.51
2019-06-01T18:11:35.152Z,48.54
2019-06-01T18:14:08.581Z,48.81
2019-06-01T18:16:39.655Z,49.06
2019-06-01T18:19:10.964Z,49.18
2019-06-01T18:21:42.153Z,49.10
2019-06-01T18:24:13.618Z,49.07
2019-06-01T18:26:44.754Z,49.25
2019-06-01T18:29:15.983Z,49.68
2019-06-01T18:31:47.162Z,50.15
2019-06-01T18:34:18.601Z,50.35
2019-06-01T18:36:50.171Z,50.30
2019-06-01T18:39:21.773Z,50.31
2019-06-01T18:41:52.998Z,50.45
2019-06-01T18:44:24.967Z,50.73
2019-06-01T18:46:56.971Z,50.85
2019-06-01T18:49:28.811Z,50.89
2019-06-01T18:52:00.077Z,50.99
2019-06-01T18:54:31.286Z,50.97
2019-06-01T18:57:13.458Z,50.91
2019-06-01T18:59:35.581Z,50.96
2019-06-01T19:02:06.783Z,50.99
2019-06-01T19:04:37.834Z,51.03
2019-06-01T19:07:09.210Z,51.07
2019-06-01T19:09:40.583Z,51.11
2019-06-01T19:12:11.643Z,51.15
2019-06-01T19:14:42.969Z,51.29
2019-06-01T19:17:14.438Z,51.37
2019-06-01T19:19:46.095Z,51.33
2019-06-01T19:22:17.245Z,51.38
2019-06-01T19:24:48.207Z,51.97
2019-06-01T19:27:19.472Z,52.18
2019-06-01T19:29:50.547Z,52.25
2019-06-01T19:32:21.948Z,52.56
2019-06-01T19:34:53.325Z,52.62
2019-06-01T19:37:25.795Z,52.68
2019-06-01T19:39:57.078Z,52.65
2019-06-01T19:42:28.268Z,52.71
2019-06-01T19:44:59.509Z,52.75
2019-06-01T19:47:30.700Z,53.04
2019-06-01T19:50:01.782Z,53.18
2019-06-01T19:52:33.111Z,53.70
2019-06-01T19:55:06.378Z,53.95
2019-06-01T19:57:37.832Z,54.16
2019-06-01T20:00:10.131Z,54.28
2019-06-01T20:02:41.826Z,54.25
2019-06-01T20:05:14.578Z,54.38
2019-06-01T20:07:45.821Z,54.51
2019-06-01T20:10:18.407Z,54.41
2019-06-01T20:12:50.261Z,54.33
2019-06-01T20:15:21.574Z,54.34
2019-06-01T20:17:52.956Z,54.48
2019-06-01T20:20:34.324Z,54.59
2019-06-01T20:23:05.431Z,54.82
2019-06-01T20:25:36.504Z,55.14
2019-06-01T20:28:07.643Z,55.31
2019-06-01T20:30:38.804Z,55.45
2019-06-01T20:33:11.893Z,55.48
2019-06-01T20:35:43.055Z,55.46
2019-06-01T20:38:14.425Z,55.66
2019-06-01T20:40:45.840Z,55.80
2019-06-01T20:43:17.120Z,55.89
2019-06-01T20:45:49.623Z,56.16
2019-06-01T20:48:20.990Z,56.26
2019-06-01T20:50:52.477Z,56.26
2019-06-01T20:53:23.718Z,56.12
2019-06-01T20:55:54.896Z,56.14
2019-06-01T20:58:25.940Z,56.07
2019-06-01T21:00:57.402Z,56.05
2019-06-01T21:03:28.706Z,56.04
2019-06-01T21:05:59.854Z,56.12
2019-06-01T21:08:31.336Z,56.22
2019-06-01T21:11:02.454Z,56.38
2019-06-01T21:13:33.594Z,56.42
2019-06-01T21:16:04.736Z,56.55
2019-06-01T21:18:35.777Z,56.76
2019-06-01T21:21:07.188Z,56.77
2019-06-01T21:23:38.525Z,56.84
2019-06-01T21:26:09.668Z,56.79
2019-06-01T21:28:40.700Z,56.95
2019-06-01T21:31:12.024Z,56.91
2019-06-01T21:33:43.171Z,57.04
2019-06-01T21:36:15.241Z,57.13
2019-06-01T21:38:46.447Z,57.16
2019-06-01T21:41:17.583Z,57.19
2019-06-01T21:43:48.946Z,57.32
2019-06-01T21:46:20.113Z,57.49
2019-06-01T21:48:51.291Z,57.67
2019-06-01T21:51:23.897Z,57.86
2019-06-01T21:53:56.294Z,57.86
2019-06-01T21:56:27.864Z,57.93
2019-06-01T21:59:00.502Z,57.94
2019-06-01T22:01:32.005Z,57.92
2019-06-01T22:04:03.200Z,57.98
2019-06-01T22:06:34.906Z,57.97
2019-06-01T22:09:08.063Z,58.13
2019-06-01T22:11:39.140Z,58.05
2019-06-01T22:14:10.340Z,58.10
2019-06-01T22:16:41.523Z,58.14
2019-06-01T22:19:12.734Z,58.17
2019-06-01T22:21:43.898Z,58.19
2019-06-01T22:24:14.980Z,58.30
2019-06-01T22:26:45.904Z,58.39
2019-06-01T22:29:18.159Z,58.69
2019-06-01T22:31:49.500Z,58.66
2019-06-01T22:34:20.852Z,58.84
2019-06-01T22:36:51.918Z,58.97
2019-06-01T22:39:23.659Z,58.97
2019-06-01T22:41:55.720Z,58.93
2019-06-01T22:44:26.868Z,58.84
2019-06-01T22:46:58.120Z,58.86
2019-06-01T22:49:29.726Z,58.96
2019-06-01T22:52:01.128Z,59.11
2019-06-01T22:54:32.410Z,59.18
2019-06-01T22:57:03.470Z,59.12
2019-06-01T22:59:34.558Z,59.29
2019-06-01T23:02:05.738Z,59.31
2019-06-01T23:04:36.792Z,59.41
2019-06-01T23:07:07.828Z,59.51
2019-06-01T23:09:38.985Z,59.52
2019-06-01T23:12:10.082Z,59.66
2019-06-01T23:14:41.171Z,59.69
2019-06-01T23:17:12.463Z,59.69
2019-06-01T23:19:43.662Z,59.79
2019-06-01T23:22:14.644Z,59.90
2019-06-01T23:24:45.832Z,59.99
2019-06-01T23:27:17.030Z,59.93
2019-06-01T23:29:48.032Z,60.21
2019-06-01T23:32:19.299Z,60.30
2019-06-01T23:34:50.313Z,60.24
2019-06-01T23:37:22.620Z,60.20
2019-06-01T23:39:53.856Z,60.23
2019-06-01T23:42:24.987Z,60.22
2019-06-01T23:44:56.108Z,60.25
2019-06-01T23:47:27.453Z,60.27
2019-06-01T23:49:58.823Z,60.29
2019-06-01T23:52:29.910Z,60.29
2019-06-01T23:55:01.197Z,60.30
2019-06-01T23:57:32.647Z,60.31
